createdAt,value
2023-05-05T00:00:00.175Z,97306.13
2023-05-05T00:02:26.968Z,97293.31
2023-05-05T00:04:53.811Z,97296.03
2023-05-05T00:07:20.719Z,97297.13
2023-05-05T00:09:47.457Z,97294.72
2023-05-05T00:12:14.162Z,97290.59
2023-05-05T00:14:41.406Z,97290.25
2023-05-05T00:17:08.165Z,97303.03
2023-05-05T00:19:34.938Z,97295.72
2023-05-05T00:22:01.647Z,97300.09
2023-05-05T00:24:28.390Z,97302.47
2023-05-05T00:26:55.133Z,97286.66
2023-05-05T00:29:21.897Z,97292.38
2023-05-05T00:31:51.322Z,97291.28
2023-05-05T00:34:18.131Z,97293.44
2023-05-05T00:36:44.899Z,97292.38
2023-05-05T00:39:11.705Z,97291.28
2023-05-05T00:41:38.461Z,97290.47
2023-05-05T00:44:05.308Z,97284.19
2023-05-05T00:46:32.094Z,97285.25
2023-05-05T00:48:58.837Z,97277.91
2023-05-05T00:51:25.652Z,97275.75
2023-05-05T00:53:52.349Z,97281.47
2023-05-05T00:56:19.520Z,97287.16
2023-05-05T00:58:46.324Z,97276.81
2023-05-05T01:01:13.591Z,97277.06
2023-05-05T01:03:40.628Z,97275.19
2023-05-05T01:06:35.695Z,97277.91
2023-05-05T01:09:14.476Z,97270.53
2023-05-05T01:12:06.241Z,97276.25
2023-05-05T01:14:38.800Z,97275.69
2023-05-05T01:17:22.014Z,97272.69
2023-05-05T01:19:54.584Z,97264.50
2023-05-05T01:22:24.348Z,97270.53
2023-05-05T01:25:23.632Z,97271.63
2023-05-05T01:28:19.352Z,97274.59
2023-05-05T01:30:57.812Z,97275.44
2023-05-05T01:33:25.791Z,97276.75
2023-05-05T01:35:54.004Z,97269.41
2023-05-05T01:38:34.698Z,97267.50
2023-05-05T01:41:05.121Z,97267.50
2023-05-05T01:43:32.760Z,97268.56
2023-05-05T01:45:59.632Z,97270.47
2023-05-05T01:48:26.397Z,97277.31
2023-05-05T01:50:53.389Z,97274.59
2023-05-05T01:53:20.246Z,97270.47
2023-05-05T01:55:47.043Z,97268.31
2023-05-05T01:58:13.844Z,97274.03
2023-05-05T02:00:40.721Z,97270.22
2023-05-05T02:03:10.782Z,97275.09
2023-05-05T02:05:38.629Z,97271.88
2023-05-05T02:08:05.627Z,97268.81
2023-05-05T02:10:32.311Z,97266.66
2023-05-05T02:12:59.838Z,97265.25
2023-05-05T02:15:26.572Z,97258.38
2023-05-05T02:17:53.335Z,97265.25
2023-05-05T02:20:20.049Z,97264.44
2023-05-05T02:22:46.964Z,97263.59
2023-05-05T02:25:13.676Z,97264.19
2023-05-05T02:27:41.736Z,97266.91
2023-05-05T02:30:09.958Z,97264.19
2023-05-05T02:32:41.269Z,97262.53
2023-05-05T02:35:14.491Z,97271.78
2023-05-05T02:37:46.854Z,97260.88
2023-05-05T02:40:13.625Z,97267.16
2023-05-05T02:42:41.509Z,97259.19
2023-05-05T02:45:11.141Z,97265.00
2023-05-05T02:47:38.289Z,97261.72
2023-05-05T02:50:05.777Z,97270.72
2023-05-05T02:52:32.918Z,97267.38
2023-05-05T02:54:59.776Z,97263.81
2023-05-05T02:57:41.280Z,97263.25
2023-05-05T03:00:30.273Z,97265.16
2023-05-05T03:03:06.288Z,97255.91
2023-05-05T03:05:40.710Z,97261.09
2023-05-05T03:08:14.106Z,97258.63
2023-05-05T03:10:46.512Z,97252.59
2023-05-05T03:13:13.484Z,97255.66
2023-05-05T03:15:43.401Z,97253.41
2023-05-05T03:18:10.236Z,97251.50
2023-05-05T03:20:40.183Z,97256.16
2023-05-05T03:23:07.242Z,97241.78
2023-05-05T03:25:46.428Z,97250.44
2023-05-05T03:28:14.250Z,97244.41
2023-05-05T03:30:41.350Z,97247.38
2023-05-05T03:33:09.892Z,97244.66
2023-05-05T03:35:36.717Z,97255.06
2023-05-05T03:38:03.459Z,97248.78
2023-05-05T03:40:43.061Z,97255.06
2023-05-05T03:43:11.933Z,97251.75
2023-05-05T03:45:38.666Z,97248.22
2023-05-05T03:48:06.133Z,97252.84
2023-05-05T03:50:32.831Z,97256.97
2023-05-05T03:52:59.530Z,97255.56
2023-05-05T03:55:26.294Z,97254.81
2023-05-05T03:57:53.027Z,97249.03
2023-05-05T04:00:19.855Z,97252.00
2023-05-05T04:02:46.668Z,97257.97
2023-05-05T04:05:13.494Z,97256.66
2023-05-05T04:07:40.197Z,97255.81
2023-05-05T04:10:10.843Z,97248.72
2023-05-05T04:12:37.674Z,97256.66
2023-05-05T04:17:30.182Z,97248.47
2023-05-05T04:19:56.929Z,97247.63
2023-05-05T04:22:23.649Z,97249.28
2023-05-05T04:24:50.322Z,97252.25
2023-05-05T04:27:17.006Z,97258.53
2023-05-05T04:29:43.666Z,97253.09
2023-05-05T04:32:10.339Z,97248.47
2023-05-05T04:34:37.008Z,97253.66
2023-05-05T04:37:03.722Z,97252.84
2023-05-05T04:39:30.442Z,97251.69
2023-05-05T04:41:57.237Z,97248.72
2023-05-05T04:44:24.059Z,97242.19
2023-05-05T04:46:50.850Z,97240.53
2023-05-05T04:49:17.650Z,97245.16
2023-05-05T04:51:44.374Z,97241.34
2023-05-05T04:54:11.156Z,97245.63
2023-05-05T04:56:37.841Z,97239.00
2023-05-05T04:59:04.508Z,97238.50
2023-05-05T05:01:31.289Z,97238.06
2023-05-05T05:03:58.068Z,97243.50
2023-05-05T05:06:24.814Z,97244.91
2023-05-05T05:08:51.470Z,97237.81
2023-05-05T05:11:18.222Z,97240.03
2023-05-05T05:13:44.896Z,97249.28
2023-05-05T05:16:11.681Z,97250.13
2023-05-05T05:18:38.463Z,97252.59
2023-05-05T05:21:05.259Z,97251.50
2023-05-05T05:23:32.041Z,97255.91
2023-05-05T05:25:58.793Z,97249.97
2023-05-05T05:28:25.509Z,97261.47
2023-05-05T05:30:52.266Z,97261.09
2023-05-05T05:33:18.971Z,97261.34
2023-05-05T05:35:45.969Z,97256.47
2023-05-05T05:38:12.761Z,97257.53
2023-05-05T05:40:39.625Z,97269.06
2023-05-05T05:43:06.315Z,97270.97
2023-05-05T05:45:33.085Z,97269.28
2023-05-05T05:47:59.873Z,97266.34
2023-05-05T05:50:26.567Z,97275.56
2023-05-05T05:52:53.301Z,97281.63
2023-05-05T05:55:20.085Z,97274.84
2023-05-05T07:23:44.889Z,97261.66
2023-05-05T07:26:11.750Z,97262.00
2023-05-05T07:28:38.617Z,97257.84
2023-05-05T07:31:05.438Z,97262.25
2023-05-05T07:33:32.153Z,97258.69
2023-05-05T07:35:58.904Z,97263.91
2023-05-05T07:38:25.628Z,97263.19
2023-05-05T07:40:52.382Z,97259.88
2023-05-05T07:43:19.122Z,97256.31
2023-05-05T07:45:46.136Z,97255.81
2023-05-05T07:48:12.877Z,97253.91
2023-05-05T07:50:39.692Z,97254.50
2023-05-05T07:53:14.308Z,97252.25
2023-05-05T07:55:41.990Z,97252.84
2023-05-05T07:58:08.779Z,97248.22
2023-05-05T08:00:35.578Z,97253.91
2023-05-05T08:03:02.392Z,97244.06
2023-05-05T08:05:29.312Z,97243.34
2023-05-05T08:07:56.032Z,97242.16
2023-05-05T08:10:22.903Z,97241.09
2023-05-05T08:12:49.674Z,97240.53
2023-05-05T08:15:16.598Z,97237.03
2023-05-05T08:17:44.716Z,97232.44
2023-05-05T08:20:11.863Z,97236.22
2023-05-05T08:22:38.568Z,97231.34
2023-05-05T08:25:05.882Z,97229.94
2023-05-05T08:27:32.855Z,97234.56
2023-05-05T08:29:59.673Z,97235.38
2023-05-05T08:32:27.853Z,97224.72
2023-05-05T08:34:56.626Z,97222.91
2023-05-05T08:37:23.360Z,97233.31
2023-05-05T08:39:50.065Z,97240.94
2023-05-05T08:42:28.973Z,97239.75
2023-05-05T08:45:02.745Z,97228.69
2023-05-05T08:47:32.468Z,97223.75
2023-05-05T08:49:59.204Z,97225.13
2023-05-05T08:52:25.997Z,97223.75
2023-05-05T08:54:57.914Z,97220.75
2023-05-05T08:57:38.767Z,97214.72
2023-05-05T09:00:06.147Z,97210.66
2023-05-05T09:02:32.937Z,97207.69
2023-05-05T09:04:59.844Z,97215.88
2023-05-05T09:07:26.623Z,97212.88
2023-05-05T09:09:53.349Z,97206.94
2023-05-05T09:12:20.171Z,97209.16
2023-05-05T09:14:47.000Z,97205.38
2023-05-05T09:17:26.465Z,97206.75
2023-05-05T09:20:06.485Z,97205.44
2023-05-05T09:22:43.488Z,97202.47
2023-05-05T09:25:11.743Z,97209.00
2023-05-05T09:27:40.276Z,97210.66
2023-05-05T09:30:07.480Z,97213.88
2023-05-05T09:32:44.846Z,97203.28
2023-05-05T09:35:11.653Z,97208.25
2023-05-05T09:37:38.327Z,97201.38
2023-05-05T09:40:05.692Z,97205.53
2023-05-05T09:42:32.404Z,97191.09
2023-05-05T09:45:00.039Z,97191.09
2023-05-05T09:47:36.711Z,97178.63
2023-05-05T09:50:03.763Z,97183.00
2023-05-05T09:52:30.570Z,97183.25
2023-05-05T09:54:57.315Z,97180.19
2023-05-05T09:57:33.018Z,97178.53
2023-05-05T10:00:01.179Z,97170.34
2023-05-05T10:02:32.114Z,97168.94
2023-05-05T10:05:08.911Z,97168.88
2023-05-05T10:07:36.266Z,97161.75
2023-05-05T10:10:10.425Z,97168.06
2023-05-05T10:12:37.437Z,97167.44
2023-05-05T10:15:05.520Z,97170.19
2023-05-05T10:17:33.238Z,97173.16
2023-05-05T10:20:00.804Z,97167.41
2023-05-05T10:22:28.950Z,97169.03
2023-05-05T10:25:30.678Z,97173.69
2023-05-05T10:28:00.005Z,97170.69
2023-05-05T10:30:29.927Z,97166.31
2023-05-05T10:33:30.927Z,97161.69
2023-05-05T10:36:01.011Z,97165.50
2023-05-05T10:38:29.284Z,97168.78
2023-05-05T10:40:56.449Z,97167.72
2023-05-05T10:43:23.287Z,97155.97
2023-05-05T10:45:50.201Z,97151.59
2023-05-05T10:48:24.716Z,97154.31
2023-05-05T10:50:54.008Z,97155.97
2023-05-05T10:53:29.134Z,97148.03
2023-05-05T10:56:16.568Z,97143.41
2023-05-05T10:58:55.463Z,97143.41
2023-05-05T11:01:30.385Z,97140.16
2023-05-05T11:04:24.180Z,97133.63
2023-05-05T11:07:14.624Z,97137.75
2023-05-05T11:09:57.969Z,97126.25
2023-05-05T11:12:24.724Z,97127.94
2023-05-05T14:11:17.890Z,96975.06
2023-05-05T14:13:44.738Z,96969.38
2023-05-05T14:16:11.464Z,96966.94
2023-05-05T14:18:38.226Z,96964.19
2023-05-05T14:21:04.965Z,96965.00
2023-05-05T14:23:31.709Z,96960.34
2023-05-05T14:25:58.437Z,96958.66
2023-05-05T14:28:25.200Z,96957.28
2023-05-05T14:30:51.993Z,96963.31
2023-05-05T14:33:18.650Z,96957.00
2023-05-05T14:35:45.381Z,96957.91
2023-05-05T14:38:12.124Z,96954.38
2023-05-05T14:40:38.858Z,96954.13
2023-05-05T14:43:05.573Z,96951.66
2023-05-05T14:45:32.363Z,96953.63
2023-05-05T14:47:59.338Z,96957.75
2023-05-05T14:50:26.123Z,96954.50
2023-05-05T14:52:52.868Z,96963.31
2023-05-05T14:55:19.842Z,96960.84
2023-05-05T14:57:46.581Z,96956.00
2023-05-05T15:00:13.741Z,96961.50
2023-05-05T15:02:40.692Z,96965.91
2023-05-05T15:05:08.204Z,96964.56
2023-05-05T15:07:35.110Z,96962.44
2023-05-05T15:10:01.856Z,96963.88
2023-05-05T15:12:28.638Z,96967.47
2023-05-05T15:14:55.401Z,96973.47
2023-05-05T15:17:22.306Z,96972.38
2023-05-05T15:19:49.057Z,96968.00
2023-05-05T15:22:15.852Z,96967.13
2023-05-05T15:24:42.583Z,96959.97
2023-05-05T15:27:09.336Z,96969.56
2023-05-05T15:29:36.008Z,96966.50
2023-05-05T15:32:02.755Z,96974.25
2023-05-05T15:34:29.657Z,96970.66
2023-05-05T15:36:56.398Z,96977.81
2023-05-05T15:39:23.181Z,96973.13
2023-05-05T15:41:49.958Z,96972.03
2023-05-05T15:44:16.653Z,96966.97
2023-05-05T15:46:43.357Z,96964.53
2023-05-05T15:49:10.118Z,96979.16
2023-05-05T15:51:36.859Z,96987.47
2023-05-05T15:54:03.643Z,96991.53
2023-05-05T15:56:30.402Z,96991.13
2023-05-05T15:58:57.203Z,96991.31
2023-05-05T16:01:23.900Z,96988.16
2023-05-05T16:03:50.671Z,96989.75
2023-05-05T16:06:17.457Z,96993.81
2023-05-05T16:08:46.639Z,96988.06
2023-05-05T16:11:13.474Z,96990.91
2023-05-05T16:13:40.293Z,96987.84
2023-05-05T16:16:07.150Z,96993.50
2023-05-05T16:18:33.974Z,96985.97
2023-05-05T16:21:00.746Z,96999.06
2023-05-05T16:23:27.561Z,96997.91
2023-05-05T16:25:54.349Z,96993.53
2023-05-05T16:28:21.034Z,96997.84
2023-05-05T16:30:47.688Z,96995.53
2023-05-05T16:33:14.367Z,96999.78
2023-05-05T16:35:44.068Z,96993.53
2023-05-05T16:38:11.231Z,96997.28
2023-05-05T16:40:38.137Z,97000.19
2023-05-05T16:43:04.977Z,96997.16
2023-05-05T16:45:31.760Z,97000.75
2023-05-05T16:47:58.525Z,96993.53
2023-05-05T16:50:25.220Z,97008.81
2023-05-05T16:52:52.090Z,96994.59
2023-05-05T16:55:19.170Z,97002.44
2023-05-05T16:57:45.834Z,97011.16
2023-05-05T17:00:13.102Z,96999.59
2023-05-05T17:02:39.913Z,96997.69
2023-05-05T17:05:07.259Z,96998.50
2023-05-05T17:07:34.189Z,96991.66
2023-05-05T17:10:00.976Z,96990.06
2023-05-05T17:12:27.695Z,96992.88
2023-05-05T17:14:54.404Z,96993.84
2023-05-05T17:17:21.213Z,96987.78
2023-05-05T17:19:48.023Z,97007.25
2023-05-05T17:22:14.770Z,96989.75
2023-05-05T17:24:41.549Z,96996.53
2023-05-05T17:27:08.376Z,96994.28
2023-05-05T17:29:35.074Z,97001.03
2023-05-05T17:32:02.021Z,97004.03
2023-05-05T17:34:28.949Z,97003.06
2023-05-05T17:36:55.716Z,97008.78
2023-05-05T17:39:22.500Z,97003.56
2023-05-05T17:41:49.277Z,97010.16
2023-05-05T17:44:16.067Z,97012.47
2023-05-05T17:46:42.774Z,97012.91
2023-05-05T17:49:09.599Z,97011.72
2023-05-05T17:51:36.338Z,97011.47
2023-05-05T17:54:03.065Z,97010.06
2023-05-05T17:56:29.879Z,97020.72
2023-05-05T17:58:56.663Z,97016.84
2023-05-05T18:01:24.003Z,97021.19
2023-05-05T18:03:50.748Z,97029.66
2023-05-05T18:06:17.564Z,97029.91
2023-05-05T18:08:44.451Z,97031.50
2023-05-05T18:11:11.238Z,97036.59
2023-05-05T18:13:37.926Z,97035.47
2023-05-05T18:16:05.002Z,97000.78
2023-05-05T18:18:31.807Z,97007.13
2023-05-05T18:20:58.578Z,97011.78
2023-05-05T18:23:25.322Z,97013.81
2023-05-05T18:25:52.106Z,97011.59
2023-05-05T18:28:18.889Z,97038.63
2023-05-05T18:30:45.661Z,97018.84
2023-05-05T18:33:14.329Z,97047.22
2023-05-05T18:35:41.106Z,97052.66
2023-05-05T18:38:07.945Z,97058.63
2023-05-05T18:40:34.713Z,97056.66
2023-05-05T18:43:01.494Z,97068.16
2023-05-05T18:45:28.212Z,97074.72
2023-05-05T18:47:55.024Z,97062.94
2023-05-05T18:50:21.987Z,97064.88
2023-05-05T18:52:49.042Z,97060.78
2023-05-05T18:55:15.821Z,97061.31
2023-05-05T18:57:42.603Z,97062.13
2023-05-05T19:00:10.262Z,97075.22
2023-05-05T19:02:37.012Z,97063.41
2023-05-05T19:05:04.059Z,97069.16
2023-05-05T19:07:35.557Z,97072.22
2023-05-05T19:10:04.050Z,97074.06
2023-05-05T19:12:30.848Z,97074.88
2023-05-05T19:14:57.560Z,97075.97
2023-05-05T19:17:24.342Z,97084.41
2023-05-05T19:19:51.067Z,97080.59
2023-05-05T19:22:17.870Z,97088.53
2023-05-05T19:24:44.570Z,97091.47
2023-05-05T19:27:11.953Z,97092.31
